createdAt,value
2023-04-20T00:01:07.610Z,100635.31
2023-04-20T00:03:36.384Z,100634.47
2023-04-20T00:06:05.689Z,100630.78
2023-04-20T00:08:35.525Z,100511.97
2023-04-20T00:11:03.972Z,100638.19
2023-04-20T00:13:32.400Z,100626.94
2023-04-20T00:16:00.773Z,100621.78
2023-04-20T00:18:29.213Z,100617.69
2023-04-20T00:20:58.100Z,100616.44
2023-04-20T00:23:26.500Z,100616.16
2023-04-20T00:25:56.321Z,100615.44
2023-04-20T00:28:24.667Z,100606.31
2023-04-20T00:30:53.118Z,100596.19
2023-04-20T00:33:21.561Z,100601.66
2023-04-20T00:35:49.990Z,100602.34
2023-04-20T00:38:18.527Z,100592.75
2023-04-20T00:40:53.124Z,100599.91
2023-04-20T00:43:23.827Z,100566.78
2023-04-20T00:45:53.802Z,100584.88
2023-04-20T00:48:23.286Z,100586.41
2023-04-20T00:50:52.473Z,100572.19
2023-04-20T00:53:21.121Z,100571.88
2023-04-20T00:55:52.123Z,100570.63
2023-04-20T00:58:20.648Z,100563.28
2023-04-20T01:00:50.672Z,100557.66
2023-04-20T01:03:20.015Z,100555.81
2023-04-20T01:05:50.497Z,100550.63
2023-04-20T01:08:18.934Z,100549.19
2023-04-20T01:10:47.449Z,100545.56
2023-04-20T01:13:16.019Z,100536.16
2023-04-20T01:15:44.414Z,100537.44
2023-04-20T01:18:14.426Z,100537.94
2023-04-20T01:20:42.893Z,100541.13
2023-04-20T01:23:12.788Z,100539.00
2023-04-20T01:25:41.762Z,100537.69
2023-04-20T01:28:10.736Z,100530.38
2023-04-20T01:30:39.526Z,100532.78
2023-04-20T01:33:08.111Z,100520.47
2023-04-20T01:35:36.523Z,100522.03
2023-04-20T01:38:04.972Z,100522.69
2023-04-20T01:40:35.325Z,100525.53
2023-04-20T01:43:03.740Z,100515.66
2023-04-20T01:45:32.169Z,100518.19
2023-04-20T01:48:02.006Z,100516.63
2023-04-20T01:50:30.397Z,100518.22
2023-04-20T01:52:58.815Z,100516.06
2023-04-20T01:55:27.216Z,100520.53
2023-04-20T01:57:57.091Z,100512.31
2023-04-20T02:00:25.545Z,100515.56
2023-04-20T02:02:54.204Z,100518.84
2023-04-20T02:05:24.544Z,100512.38
2023-04-20T02:07:52.920Z,100516.00
2023-04-20T02:10:21.609Z,100510.94
2023-04-20T02:12:51.493Z,100506.75
2023-04-20T02:15:21.425Z,100503.22
2023-04-20T02:17:52.476Z,100497.47
2023-04-20T02:20:21.716Z,100501.59
2023-04-20T02:22:50.522Z,100495.38
2023-04-20T02:25:20.136Z,100494.31
2023-04-20T02:27:49.705Z,100489.38
2023-04-20T02:30:18.222Z,100493.53
2023-04-20T02:32:48.158Z,100487.88
2023-04-20T02:35:17.687Z,100489.09
2023-04-20T02:37:46.571Z,100482.00
2023-04-20T02:40:15.316Z,100484.53
2023-04-20T02:42:43.924Z,100476.72
2023-04-20T02:45:13.611Z,100491.44
2023-04-20T02:47:44.826Z,100490.56
2023-04-20T02:50:16.656Z,100494.41
2023-04-20T02:53:05.855Z,100481.28
2023-04-20T02:55:36.709Z,100491.19
2023-04-20T02:58:14.124Z,100491.09
2023-04-20T03:01:01.875Z,100488.09
2023-04-20T03:03:32.008Z,100491.47
2023-04-20T03:06:02.417Z,100492.44
2023-04-20T03:08:30.927Z,100487.97
2023-04-20T03:11:04.440Z,100488.44
2023-04-20T03:13:33.058Z,100479.78
2023-04-20T03:16:05.115Z,100483.06
2023-04-20T03:18:37.907Z,100480.91
2023-04-20T03:21:07.958Z,100484.41
2023-04-20T03:23:36.366Z,100487.16
2023-04-20T03:26:06.329Z,100486.69
2023-04-20T03:28:54.316Z,100481.84
2023-04-20T03:31:26.641Z,100476.91
2023-04-20T03:33:57.986Z,100469.91
2023-04-20T03:36:28.541Z,100467.41
2023-04-20T03:38:58.761Z,100470.56
2023-04-20T03:41:27.105Z,100467.53
2023-04-20T03:43:56.511Z,100469.94
2023-04-20T03:46:25.039Z,100473.44
2023-04-20T03:48:53.739Z,100464.50
2023-04-20T03:51:22.115Z,100477.53
2023-04-20T03:53:52.878Z,100465.72
2023-04-20T03:56:21.500Z,100458.38
2023-04-20T03:58:51.029Z,100461.03
2023-04-20T04:01:24.896Z,100464.50
2023-04-20T04:03:53.515Z,100457.53
2023-04-20T04:06:23.037Z,100463.91
2023-04-20T04:08:54.283Z,100465.72
2023-04-20T04:11:22.786Z,100464.28
2023-04-20T04:13:51.332Z,100462.34
2023-04-20T04:16:20.071Z,100470.06
2023-04-20T04:18:50.659Z,100468.00
2023-04-20T04:21:19.139Z,100476.94
2023-04-20T04:23:56.013Z,100474.28
2023-04-20T04:26:36.464Z,100462.84
2023-04-20T04:29:06.739Z,100466.94
2023-04-20T04:31:35.726Z,100468.34
2023-04-20T04:34:10.893Z,100468.81
2023-04-20T04:36:44.758Z,100462.69
2023-04-20T04:39:18.149Z,100460.66
2023-04-20T04:41:55.862Z,100464.50
2023-04-20T04:44:33.352Z,100460.38
2023-04-20T04:47:05.627Z,100436.16
2023-04-20T04:49:35.857Z,100461.56
2023-04-20T04:52:04.625Z,100459.16
2023-04-20T04:54:34.409Z,100472.31
2023-04-20T04:57:02.873Z,100463.78
2023-04-20T04:59:31.254Z,100475.81
2023-04-20T05:01:59.774Z,100467.03
2023-04-20T05:04:28.393Z,100462.94
2023-04-20T05:06:56.965Z,100336.19
2023-04-20T05:09:25.730Z,100465.44
2023-04-20T05:11:55.526Z,100470.88
2023-04-20T05:14:24.019Z,100470.97
2023-04-20T05:16:52.759Z,100475.81
2023-04-20T05:19:21.251Z,100467.13
2023-04-20T05:21:49.660Z,100460.63
2023-04-20T05:24:19.583Z,100463.16
2023-04-20T05:26:48.081Z,100465.81
2023-04-20T05:29:18.706Z,100467.03
2023-04-20T05:31:47.186Z,100471.38
2023-04-20T05:34:15.631Z,100469.81
2023-04-20T05:36:44.291Z,100467.03
2023-04-20T05:39:12.663Z,100464.66
2023-04-20T05:41:41.111Z,100463.66
2023-04-20T05:44:09.530Z,100466.94
2023-04-20T05:46:39.367Z,100466.41
2023-04-20T05:49:08.507Z,100459.97
2023-04-20T05:51:36.940Z,100464.09
2023-04-20T05:54:05.997Z,100469.25
2023-04-20T05:56:34.368Z,100465.97
2023-04-20T05:59:03.383Z,100471.38
2023-04-20T06:01:31.825Z,100484.00
2023-04-20T06:04:02.336Z,100478.50
2023-04-20T06:06:30.868Z,100481.47
2023-04-20T06:08:59.481Z,100473.06
2023-04-20T06:11:27.945Z,100474.84
2023-04-20T06:13:56.229Z,100486.06
2023-04-20T06:16:24.711Z,100481.31
2023-04-20T06:18:53.125Z,100486.22
2023-04-20T06:21:24.695Z,100488.44
2023-04-20T06:23:53.226Z,100481.31
2023-04-20T06:26:22.215Z,100485.34
2023-04-20T06:28:53.111Z,100483.28
2023-04-20T06:31:22.072Z,100476.69
2023-04-20T06:33:50.864Z,100479.31
2023-04-20T06:36:19.212Z,100474.22
2023-04-20T06:38:49.240Z,100478.03
2023-04-20T06:41:18.082Z,100477.75
2023-04-20T06:43:46.509Z,100475.31
2023-04-20T06:46:14.886Z,100477.44
2023-04-20T06:48:43.293Z,100476.28
2023-04-20T06:51:14.079Z,100477.59
2023-04-20T06:53:42.548Z,100472.66
2023-04-20T06:56:12.655Z,100464.31
2023-04-20T06:58:41.125Z,100466.53
2023-04-20T07:01:09.630Z,100469.16
2023-04-20T07:03:38.364Z,100469.69
2023-04-20T07:06:07.486Z,100464.28
2023-04-20T07:08:35.985Z,100465.78
2023-04-20T07:11:04.326Z,100460.34
2023-04-20T07:13:34.305Z,100459.31
2023-04-20T07:16:02.929Z,100461.59
2023-04-20T07:18:32.890Z,100455.91
2023-04-20T07:21:03.202Z,100468.34
2023-04-20T07:23:31.588Z,100461.09
2023-04-20T07:26:00.114Z,100455.97
2023-04-20T07:28:28.478Z,100459.06
2023-04-20T07:30:59.539Z,100456.28
2023-04-20T07:33:29.968Z,100452.41
2023-04-20T07:35:58.712Z,100447.16
2023-04-20T07:38:27.102Z,100446.50
2023-04-20T07:40:55.423Z,100448.31
2023-04-20T07:43:23.766Z,100446.06
2023-04-20T07:45:52.703Z,100439.25
2023-04-20T07:48:22.531Z,100440.13
2023-04-20T07:50:51.085Z,100438.06
2023-04-20T07:53:19.569Z,100411.19
2023-04-20T07:55:50.812Z,100431.81
2023-04-20T07:58:19.709Z,100430.97
2023-04-20T08:00:48.669Z,100429.94
2023-04-20T08:03:17.527Z,100428.91
2023-04-20T08:05:48.031Z,100425.56
2023-04-20T08:08:18.022Z,100415.56
2023-04-20T08:10:46.721Z,100424.31
2023-04-20T08:13:15.141Z,100417.22
2023-04-20T08:15:43.546Z,100418.88
2023-04-20T08:18:12.165Z,100418.88
2023-04-20T08:20:40.940Z,100415.94
2023-04-20T08:23:10.880Z,100419.09
2023-04-20T08:25:40.543Z,100404.88
2023-04-20T08:28:12.231Z,100413.63
2023-04-20T08:30:48.115Z,100413.38
2023-04-20T08:33:16.705Z,100420.44
2023-04-20T08:35:45.622Z,100409.00
2023-04-20T08:38:18.089Z,100415.03
2023-04-20T08:40:49.195Z,100416.28
2023-04-20T08:43:17.887Z,100412.81
2023-04-20T08:45:51.894Z,100408.84
2023-04-20T08:48:21.528Z,100408.88
2023-04-20T08:50:51.661Z,100406.16
2023-04-20T08:53:23.820Z,100405.97
2023-04-20T08:55:52.156Z,100406.16
2023-04-20T08:58:20.857Z,100404.31
2023-04-20T09:00:49.743Z,100387.63
2023-04-20T09:03:18.380Z,100395.53
2023-04-20T09:05:47.076Z,100399.44
2023-04-20T09:08:15.348Z,100394.03
2023-04-20T09:10:46.341Z,100388.41
2023-04-20T09:13:23.677Z,100395.25
2023-04-20T09:15:52.278Z,100377.09
2023-04-20T09:18:20.860Z,100376.69
2023-04-20T09:20:49.245Z,100381.63
2023-04-20T09:23:19.580Z,100347.25
2023-04-20T09:25:53.768Z,100369.91
2023-04-20T09:28:22.307Z,100371.16
2023-04-20T09:30:51.854Z,100372.53
2023-04-20T09:33:20.443Z,100374.22
2023-04-20T09:35:49.850Z,100370.81
2023-04-20T09:38:18.839Z,100367.88
2023-04-20T09:40:47.304Z,100372.38
2023-04-20T09:43:20.693Z,100365.50
2023-04-20T09:45:49.428Z,100358.34
2023-04-20T09:48:19.732Z,100347.47
2023-04-20T09:50:50.639Z,100352.88
2023-04-20T09:53:20.629Z,100348.59
2023-04-20T09:55:50.198Z,100338.34
2023-04-20T09:58:21.971Z,100344.94
2023-04-20T10:00:51.448Z,100340.38
2023-04-20T10:03:22.405Z,100333.31
2023-04-20T10:05:53.625Z,100338.25
2023-04-20T10:08:22.073Z,100324.59
2023-04-20T10:10:52.430Z,100325.66
2023-04-20T10:13:23.464Z,100328.22
2023-04-20T10:15:51.926Z,100325.03
2023-04-20T10:18:23.863Z,100320.88
2023-04-20T10:20:53.698Z,100317.34
2023-04-20T10:23:22.224Z,100317.16
2023-04-20T10:25:57.835Z,100305.53
2023-04-20T10:28:39.738Z,100308.44
2023-04-20T10:31:13.290Z,100300.41
2023-04-20T10:33:53.634Z,100257.53
2023-04-20T10:36:26.693Z,100289.56
2023-04-20T10:38:55.230Z,100290.63
2023-04-20T10:41:23.595Z,100288.19
2023-04-20T10:43:53.576Z,100283.56
2023-04-20T10:46:23.685Z,100281.78
2023-04-20T10:48:53.948Z,100285.56
2023-04-20T10:51:23.173Z,100274.19
2023-04-20T10:54:06.308Z,100274.00
2023-04-20T10:56:41.534Z,100274.50
2023-04-20T10:59:13.135Z,100261.09
2023-04-20T11:01:42.310Z,100240.00
2023-04-20T11:04:11.799Z,100259.91
2023-04-20T11:06:41.247Z,100267.03
2023-04-20T11:09:20.532Z,100257.22
2023-04-20T11:12:00.409Z,100256.84
2023-04-20T11:14:30.665Z,100255.88
2023-04-20T11:16:59.261Z,100246.09
2023-04-20T11:19:29.538Z,100250.22
2023-04-20T11:21:58.084Z,100241.91
2023-04-20T11:24:27.918Z,100248.53
2023-04-20T11:26:58.224Z,100239.06
2023-04-20T11:29:35.077Z,100240.78
2023-04-20T11:32:06.561Z,100237.13
2023-04-20T11:34:36.930Z,100227.53
2023-04-20T11:37:06.665Z,100219.78
2023-04-20T11:39:35.458Z,100228.78
2023-04-20T11:42:04.358Z,100230.53
2023-04-20T11:44:36.682Z,100228.16
2023-04-20T11:47:06.276Z,100195.59
2023-04-20T11:49:34.733Z,100223.06
2023-04-20T11:52:03.535Z,100216.78
2023-04-20T11:54:34.175Z,100215.03
2023-04-20T11:57:02.651Z,100212.66
2023-04-20T11:59:31.161Z,100213.84
2023-04-20T12:02:04.383Z,100211.13
2023-04-20T12:04:34.481Z,100214.31
2023-04-20T12:07:03.545Z,100206.84
2023-04-20T12:09:36.426Z,100207.53
2023-04-20T12:12:05.044Z,100205.50
2023-04-20T12:14:34.730Z,100197.09
2023-04-20T12:17:05.732Z,100206.13
2023-04-20T12:19:34.149Z,100177.88
2023-04-20T12:22:02.539Z,100204.66
2023-04-20T12:24:30.994Z,100201.34
2023-04-20T12:26:59.449Z,100203.16
2023-04-20T12:29:27.915Z,100200.66
2023-04-20T12:31:56.479Z,100198.66
2023-04-20T12:34:26.802Z,100164.16
2023-04-20T12:36:55.231Z,100191.47
2023-04-20T12:39:23.626Z,100194.31
2023-04-20T12:41:52.135Z,100196.72
2023-04-20T12:44:20.785Z,100200.84
2023-04-20T12:46:49.450Z,100191.13
2023-04-20T12:49:18.077Z,100190.28
2023-04-20T12:51:48.023Z,100192.44
2023-04-20T12:54:16.622Z,100187.28
2023-04-20T12:56:45.155Z,100187.50
2023-04-20T12:59:14.414Z,100183.22
2023-04-20T13:01:42.815Z,100183.94
2023-04-20T13:04:11.554Z,100180.53
2023-04-20T13:06:40.252Z,100183.75
2023-04-20T13:09:10.173Z,100184.25
2023-04-20T13:11:38.817Z,100174.75
2023-04-20T13:14:07.330Z,100184.44
2023-04-20T13:16:35.728Z,100165.22
2023-04-20T13:19:04.654Z,100161.25
2023-04-20T13:21:33.515Z,100177.50
2023-04-20T13:24:01.876Z,100178.63
2023-04-20T13:26:31.609Z,100177.22
2023-04-20T13:28:59.988Z,100173.53
2023-04-20T13:31:28.540Z,100171.03
2023-04-20T13:33:56.997Z,100172.22
2023-04-20T13:36:25.844Z,100171.03
2023-04-20T13:38:55.927Z,100171.03
2023-04-20T13:41:24.891Z,100164.63
2023-04-20T13:43:54.841Z,100155.75
2023-04-20T13:46:23.373Z,100157.50
2023-04-20T13:48:52.007Z,100157.03
2023-04-20T13:51:20.988Z,100163.56
2023-04-20T13:53:49.677Z,100161.91
2023-04-20T13:56:19.622Z,100155.88
2023-04-20T13:58:47.992Z,100152.84
2023-04-20T14:01:17.951Z,100163.22
2023-04-20T14:03:46.694Z,100157.94
2023-04-20T14:06:15.308Z,100159.22
2023-04-20T14:08:43.783Z,100156.75
2023-04-20T14:11:12.247Z,100156.28
2023-04-20T14:13:41.268Z,100152.13
2023-04-20T14:16:11.009Z,100151.28
2023-04-20T14:18:41.049Z,100117.66
2023-04-20T14:21:10.557Z,100140.41
2023-04-20T14:23:39.021Z,100135.06
2023-04-20T14:26:07.474Z,100135.19
2023-04-20T14:28:36.009Z,100133.88
2023-04-20T14:31:04.509Z,100134.47
2023-04-20T14:33:32.983Z,100128.06
2023-04-20T14:36:02.801Z,100136.59
2023-04-20T14:38:31.308Z,100129.50
2023-04-20T14:41:00.844Z,100122.78
2023-04-20T14:43:30.280Z,100121.81
2023-04-20T14:45:58.948Z,100118.38
2023-04-20T14:48:28.736Z,100120.63
2023-04-20T14:50:57.209Z,100114.13
2023-04-20T14:53:27.079Z,100117.91
2023-04-20T14:55:56.567Z,100114.94
2023-04-20T14:58:25.137Z,100116.13
2023-04-20T15:00:54.155Z,100114.59
2023-04-20T15:03:22.974Z,100111.50
2023-04-20T15:05:51.724Z,100111.84
2023-04-20T15:08:20.083Z,100107.38
2023-04-20T15:10:52.011Z,100108.66
2023-04-20T15:13:20.531Z,100105.81
2023-04-20T15:15:50.048Z,100113.16
2023-04-20T15:18:20.660Z,100115.78
2023-04-20T15:20:49.053Z,100120.16
2023-04-20T15:23:17.399Z,100136.69
2023-04-20T15:25:45.890Z,100127.06
2023-04-20T15:28:15.782Z,100128.44
2023-04-20T15:30:44.482Z,100128.31
2023-04-20T15:33:13.020Z,100123.47
2023-04-20T15:35:41.625Z,100127.34
2023-04-20T15:38:10.173Z,100115.38
2023-04-20T15:40:39.816Z,100126.34
2023-04-20T15:43:08.302Z,100119.47
2023-04-20T15:45:38.080Z,100120.53
2023-04-20T15:48:06.991Z,100123.94
2023-04-20T15:50:36.318Z,100121.31
2023-04-20T15:53:04.743Z,100122.09
2023-04-20T15:55:35.752Z,100122.56
2023-04-20T15:58:04.160Z,100124.03
2023-04-20T16:00:32.717Z,100130.97
2023-04-20T16:03:02.840Z,100131.44
2023-04-20T16:05:34.053Z,100129.63
2023-04-20T16:08:02.596Z,100129.94
2023-04-20T16:10:31.064Z,100131.44
2023-04-20T16:12:59.472Z,100129.41
2023-04-20T16:15:27.939Z,100138.81
2023-04-20T16:17:56.483Z,100137.03
2023-04-20T16:20:26.218Z,100145.91
2023-04-20T16:22:54.653Z,100154.19
2023-04-20T16:25:24.240Z,100162.19
2023-04-20T16:27:52.702Z,100166.63
2023-04-20T16:30:21.268Z,100184.84
2023-04-20T16:32:50.150Z,100182.53
2023-04-20T16:35:18.626Z,100187.25
2023-04-20T16:37:48.433Z,100194.03
2023-04-20T16:40:16.805Z,100202.97
2023-04-20T16:42:45.321Z,100203.81
2023-04-20T16:45:14.011Z,100207.34
2023-04-20T16:47:42.433Z,100212.34
2023-04-20T16:50:12.676Z,100200.13
2023-04-20T16:52:41.104Z,100208.72
2023-04-20T16:55:11.608Z,100201.63
2023-04-20T16:57:40.131Z,100210.38
2023-04-20T17:00:10.817Z,100200.56
2023-04-20T17:02:39.641Z,100206.25
2023-04-20T17:05:09.113Z,100205.63
2023-04-20T17:07:37.638Z,100212.13
2023-04-20T17:10:07.328Z,100217.53
2023-04-20T17:12:38.032Z,100214.22
2023-04-20T17:15:08.952Z,100209.84
2023-04-20T17:17:37.559Z,100210.06
2023-04-20T17:20:07.646Z,100215.28
2023-04-20T17:22:36.706Z,100213.19
2023-04-20T17:25:07.606Z,100219.69
2023-04-20T17:27:37.796Z,100221.38
2023-04-20T17:30:07.416Z,100226.38
2023-04-20T17:32:35.886Z,100225.75
2023-04-20T17:35:04.484Z,100227.84
2023-04-20T17:37:32.991Z,100234.72
2023-04-20T17:40:01.604Z,100240.13
2023-04-20T17:42:29.987Z,100242.03
2023-04-20T17:44:59.752Z,100247.25
2023-04-20T17:47:28.660Z,100243.28
2023-04-20T17:49:57.216Z,100242.84
2023-04-20T17:52:25.769Z,100248.88
2023-04-20T17:54:55.452Z,100255.56
2023-04-20T17:57:23.906Z,100261.78
2023-04-20T17:59:52.284Z,100262.19
2023-04-20T18:02:22.356Z,100272.56
2023-04-20T18:04:50.955Z,100271.72
2023-04-20T18:07:19.872Z,100284.56
2023-04-20T18:09:48.293Z,100281.16
2023-04-20T18:12:16.588Z,100275.69
2023-04-20T18:14:44.997Z,100281.88
2023-04-20T18:17:13.463Z,100294.25
2023-04-20T18:19:43.231Z,100303.59
2023-04-20T18:22:11.615Z,100308.25
2023-04-20T18:24:40.010Z,100321.25
2023-04-20T18:27:08.384Z,100320.88
2023-04-20T18:29:36.900Z,100301.31
2023-04-20T18:32:05.732Z,100310.59
2023-04-20T18:34:34.330Z,100318.66
2023-04-20T18:37:04.157Z,100329.38
2023-04-20T18:39:32.516Z,100337.69
2023-04-20T18:42:01.058Z,100338.66
2023-04-20T18:44:30.318Z,100346.28
2023-04-20T18:46:59.341Z,100357.81
2023-04-20T18:49:27.738Z,100355.97
2023-04-20T18:51:56.118Z,100357.19
2023-04-20T18:54:25.938Z,100367.78
2023-04-20T18:56:55.090Z,100371.75
2023-04-20T18:59:24.838Z,100378.00
2023-04-20T19:01:53.373Z,100377.81
2023-04-20T19:04:22.298Z,100350.97
2023-04-20T19:06:50.936Z,100388.13
2023-04-20T19:09:19.379Z,100389.16
2023-04-20T19:11:49.283Z,100388.88
2023-04-20T19:14:17.785Z,100392.97
2023-04-20T19:16:46.558Z,100399.13
2023-04-20T19:19:15.040Z,100400.38
2023-04-20T19:21:43.402Z,100404.66
2023-04-20T19:24:11.766Z,100409.38
2023-04-20T19:26:40.220Z,100415.69
2023-04-20T19:29:12.428Z,100413.56
2023-04-20T19:31:42.229Z,100412.94
2023-04-20T19:34:13.585Z,100416.53
2023-04-20T19:36:42.398Z,100420.78
2023-04-20T19:39:11.122Z,100420.84
2023-04-20T19:41:39.916Z,100430.16
2023-04-20T19:44:10.644Z,100430.06
2023-04-20T19:46:40.802Z,100430.06
2023-04-20T19:49:09.294Z,100430.88
2023-04-20T19:51:37.763Z,100439.63
2023-04-20T19:54:06.469Z,100437.47
2023-04-20T19:56:34.947Z,100438.00
2023-04-20T19:59:03.339Z,100438.84
2023-04-20T20:01:33.371Z,100427.78
2023-04-20T20:04:01.852Z,100426.47
2023-04-20T20:06:30.374Z,100424.78
2023-04-20T20:08:59.068Z,100422.09
2023-04-20T20:11:27.913Z,100420.44
2023-04-20T20:13:57.209Z,100427.88
2023-04-20T20:16:28.225Z,100436.97
2023-04-20T20:18:59.974Z,100434.28
2023-04-20T20:21:28.280Z,100433.31
2023-04-20T20:23:56.778Z,100426.63
2023-04-20T20:26:25.169Z,100431.69
2023-04-20T20:28:53.705Z,100434.06
2023-04-20T20:31:22.513Z,100436.66
2023-04-20T20:33:51.258Z,100426.94
2023-04-20T20:36:22.497Z,100426.94
2023-04-20T20:38:51.256Z,100419.41
2023-04-20T20:41:20.635Z,100418.56
2023-04-20T20:43:50.003Z,100410.19
2023-04-20T20:46:19.259Z,100412.94
2023-04-20T20:48:47.809Z,100408.09
2023-04-20T20:51:17.286Z,100404.94
2023-04-20T20:53:47.087Z,100410.31
2023-04-20T20:56:15.684Z,100404.44
2023-04-20T20:58:44.040Z,100411.34
2023-04-20T21:01:12.514Z,100408.19
2023-04-20T21:03:41.177Z,100406.88
2023-04-20T21:06:09.978Z,100399.53
2023-04-20T21:08:38.429Z,100405.25
2023-04-20T21:11:08.839Z,100401.88
2023-04-20T21:13:37.210Z,100398.41
2023-04-20T21:16:05.861Z,100400.75
2023-04-20T21:18:34.357Z,100392.75
2023-04-20T21:21:02.731Z,100387.59
2023-04-20T21:23:31.131Z,100389.09
2023-04-20T21:25:59.516Z,100385.25
2023-04-20T21:28:29.322Z,100383.78
2023-04-20T21:30:58.700Z,100387.81
2023-04-20T21:33:27.214Z,100398.38
2023-04-20T21:35:57.665Z,100401.41
2023-04-20T21:38:27.299Z,100406.09
2023-04-20T21:40:55.673Z,100402.13
2023-04-20T21:43:24.051Z,100416.38
2023-04-20T21:45:53.800Z,100428.13
2023-04-20T21:48:22.244Z,100421.91
2023-04-20T21:50:50.619Z,100411.53
2023-04-20T21:53:19.050Z,100419.06
2023-04-20T21:55:47.368Z,100418.59
2023-04-20T21:58:15.812Z,100426.31
2023-04-20T22:00:44.268Z,100424.97
2023-04-20T22:03:14.279Z,100426.97
2023-04-20T22:05:42.967Z,100422.59
2023-04-20T22:08:13.935Z,100430.13
2023-04-20T22:10:42.419Z,100416.91
2023-04-20T22:13:10.775Z,100431.13
2023-04-20T22:15:39.266Z,100426.97
2023-04-20T22:18:09.982Z,100432.81
2023-04-20T22:20:40.366Z,100425.97
2023-04-20T22:23:08.720Z,100433.66
2023-04-20T22:25:37.099Z,100434.84
2023-04-20T22:28:05.543Z,100436.00
2023-04-20T22:30:33.940Z,100431.66
2023-04-20T22:33:02.893Z,100439.38
2023-04-20T22:35:31.585Z,100438.38
2023-04-20T22:38:01.489Z,100428.16
2023-04-20T22:40:29.873Z,100427.31
2023-04-20T22:42:58.221Z,100434.50
2023-04-20T22:45:26.657Z,100439.16
2023-04-20T22:47:55.031Z,100441.00
2023-04-20T22:50:23.446Z,100431.97
2023-04-20T22:52:52.172Z,100437.00
2023-04-20T22:55:21.960Z,100441.16
2023-04-20T22:57:50.352Z,100445.53
2023-04-20T23:00:19.161Z,100448.19
2023-04-20T23:02:47.738Z,100459.75
2023-04-20T23:05:20.364Z,100456.25
2023-04-20T23:07:49.131Z,100452.38
2023-04-20T23:10:17.716Z,100444.16
2023-04-20T23:12:48.115Z,100439.94
2023-04-20T23:15:16.699Z,100433.91
2023-04-20T23:17:45.096Z,100442.66
2023-04-20T23:20:14.512Z,100439.00
2023-04-20T23:22:42.901Z,100432.63
2023-04-20T23:25:11.489Z,100433.31
2023-04-20T23:27:39.858Z,100400.09
2023-04-20T23:30:10.957Z,100424.75
2023-04-20T23:32:39.411Z,100418.88
2023-04-20T23:35:08.318Z,100425.06
2023-04-20T23:37:36.724Z,100427.59
2023-04-20T23:40:07.366Z,100415.53
2023-04-20T23:42:37.598Z,100417.91
2023-04-20T23:45:06.781Z,100430.63
2023-04-20T23:47:36.973Z,100424.59
2023-04-20T23:50:23.944Z,100418.91
2023-04-20T23:52:59.824Z,100428.63
2023-04-20T23:55:29.459Z,100422.94
2023-04-20T23:57:58.560Z,100424.28
